Apalachicola, Florida
Current Conditions -  °F | °C
As of 11:12 PM on Tuesday 25 Nov 2014 (Local Time) from KAAF Reporting Station
Light Rain Light Rain  
Wind Chill: 11°   Ceiling: 2700
Heat Index: 11°   Visibility: 10mi
Dew Point:   Wind: 15mph
Humidity: 83%   Direction: 350°N
Pressure: 30.05"   Gusts: 20mph
Location:  29.73°N, 84.99°W
Report Text: KAAF 260412Z AUTO 35013G17KT 10SM -RA BKN027 OVC055 11/08 A3005 RMK AO2 P0000 T01060078 TSNO
Loading
Personal Weather Stations






























Interactive Weather Map New forecast layout! Learn more

10-Day Weather Forecast

Advertisements
Track Severe Weather on mobile